Bookmark and Share
Track history (hours):
 

City Of Sidon

Last reported at 2014-Apr-24 14:23 UTC. Time now 2014-Apr-24 22:30 UTC.
Position N 35°49' E 014°35'.

Length 109 m; draft 4.4 m.

Type: Cargo ship. MMSI: 371966000.

NotesDate/timePositionNaut miles runAvg speedWind from/ knotsBaromVisibWave heightAir tempDewpointWater temp
2014-Apr-24 14:23N 35°49' E 014°35'2 2.2
2014-Apr-24 13:33N 35°48' E 014°36'8 8.4
2014-Apr-24 12:33N 35°41' E 014°31'10 8.9
2014-Apr-24 11:26N 35°33' E 014°23'193 4.2
2014-Apr-22 13:30N 32°55' E 012°07'1 0.1
2014-Apr-21 22:11N 32°57' E 012°08'0 0.0
2014-Apr-21 19:26N 32°57' E 012°08'0 0.0
2014-Apr-21 18:26N 32°57' E 012°08'0 0.0
2014-Apr-21 16:11N 32°57' E 012°08'0 0.0
2014-Apr-21 14:11N 32°57' E 012°08'0 0.0
2014-Apr-21 10:32N 32°57' E 012°08'100 5.9
2014-Apr-20 17:33N 34°37' E 012°06'9 8.7
2014-Apr-20 16:33N 34°46' E 012°05'9 8.8
2014-Apr-20 15:33N 34°54' E 012°04'18 8.9
2014-Apr-20 13:33N 35°12' E 012°03'9 8.8
2014-Apr-20 12:33N 35°21' E 012°02'9 8.8
2014-Apr-20 11:33N 35°29' E 012°01'9 8.8
2014-Apr-20 10:33N 35°38' E 011°60'102 9.1
2014-Apr-19 23:16N 37°17' E 011°28'6 8.6
2014-Apr-19 22:33N 37°23' E 011°28'11 9.0
2014-Apr-19 21:23N 37°33' E 011°23'40 8.4
2014-Apr-19 16:33N 38°08' E 010°56'8 8.1
2014-Apr-19 15:33N 38°14' E 010°49'8 8.0
2014-Apr-19 14:33N 38°20' E 010°42'292 8.6
2014-Apr-18 04:33N 43°07' E 009°34'8 8.5
2014-Apr-18 03:33N 43°15' E 009°28'9 9.2
2014-Apr-18 02:33N 43°23' E 009°21'9 9.2
2014-Apr-18 01:33N 43°30' E 009°15'9 9.0
2014-Apr-18 00:33N 43°38' E 009°08'9 9.1
2014-Apr-17 23:33N 43°46' E 009°01'9 9.1
2014-Apr-17 22:33N 43°53' E 008°54'9 9.2
2014-Apr-17 21:33N 44°01' E 008°47'9 9.4
2014-Apr-17 20:33N 44°09' E 008°40'9 9.5
2014-Apr-17 19:33N 44°16' E 008°32'3 2.8
2014-Apr-17 18:28N 44°19' E 008°30'0 0.0
2014-Apr-17 17:31N 44°19' E 008°30'0 0.0
2014-Apr-17 16:28N 44°19' E 008°30'0 0.0
2014-Apr-17 15:28N 44°19' E 008°30'0 0.0
2014-Apr-17 14:28N 44°19' E 008°30'0 0.0
2014-Apr-17 13:31N 44°19' E 008°30'0 0.0
2014-Apr-17 12:31N 44°19' E 008°30'0 0.0
2014-Apr-17 11:25N 44°19' E 008°30'0 0.0
2014-Apr-17 10:16N 44°19' E 008°30'0 0.0
2014-Apr-17 09:22N 44°19' E 008°30'0 0.0
2014-Apr-17 08:22N 44°19' E 008°30'0 0.0
2014-Apr-17 07:22N 44°19' E 008°30'0 0.0
2014-Apr-17 05:28N 44°19' E 008°30'0 0.4
2014-Apr-17 04:32N 44°19' E 008°30'1 0.9
2014-Apr-17 03:27N 44°18' E 008°31'0 0.0
2014-Apr-17 02:30N 44°18' E 008°31'0 0.0
2014-Apr-17 00:18N 44°18' E 008°31'0 0.0
2014-Apr-16 23:18N 44°18' E 008°31'0 0.0
2014-Apr-16 22:15N 44°18' E 008°31'0 0.0
2014-Apr-16 21:21N 44°18' E 008°31'0 0.0
2014-Apr-16 20:15N 44°18' E 008°31'0 0.0
2014-Apr-16 19:21N 44°18' E 008°31'0 0.1
2014-Apr-16 18:27N 44°18' E 008°31'0 0.0
2014-Apr-16 17:33N 44°18' E 008°31'0 0.1
2014-Apr-16 16:33N 44°18' E 008°31'0 0.0
2014-Apr-16 15:30N 44°18' E 008°31'0 0.2
2014-Apr-16 14:32N 44°18' E 008°31'0 0.0
2014-Apr-16 13:14N 44°18' E 008°31'0 0.1
2014-Apr-16 12:08N 44°18' E 008°31'0 0.0
2014-Apr-16 11:20N 44°18' E 008°31'0 0.1
2014-Apr-16 10:32N 44°18' E 008°31'1 0.8
2014-Apr-16 09:22N 44°18' E 008°30'1 1.1
2014-Apr-16 08:19N 44°17' E 008°28'0 0.0
2014-Apr-16 07:31N 44°17' E 008°28'0 0.0
2014-Apr-16 03:31N 44°17' E 008°29'0 0.0
2014-Apr-16 00:04N 44°17' E 008°29'0 0.0
2014-Apr-15 23:31N 44°17' E 008°29'0 0.0
2014-Apr-15 22:16N 44°17' E 008°29'0 0.0
2014-Apr-15 21:07N 44°17' E 008°29'0 0.0
2014-Apr-15 19:34N 44°17' E 008°29'0 0.0
2014-Apr-15 18:12N 44°17' E 008°28'0 0.0
2014-Apr-15 17:30N 44°17' E 008°29'0 0.0
2014-Apr-15 10:34N 44°17' E 008°28'0 0.1
2014-Apr-15 05:31N 44°17' E 008°28'0 0.0
2014-Apr-15 03:30N 44°17' E 008°28'0 0.0
2014-Apr-15 01:33N 44°17' E 008°28'0 0.0
2014-Apr-15 00:33N 44°17' E 008°28'0 0.0
2014-Apr-14 23:33N 44°17' E 008°28'0 0.0
2014-Apr-14 22:33N 44°17' E 008°28'0 0.0
2014-Apr-14 20:30N 44°17' E 008°28'0 0.0
2014-Apr-14 18:33N 44°17' E 008°28'0 0.0
2014-Apr-14 16:30N 44°17' E 008°28'0 0.0
2014-Apr-14 14:30N 44°17' E 008°29'  

Dump ship's entire track history

sailing weather and tide predictions

City Of Sidon — H8BG — position and weather